createdAt,value
2023-04-22T00:01:21.378Z,26.59
2023-04-22T00:03:49.308Z,26.24
2023-04-22T00:06:17.450Z,26.63
2023-04-22T00:08:45.361Z,26.60
2023-04-22T00:11:13.255Z,26.64
2023-04-22T00:13:42.329Z,26.79
2023-04-22T00:16:10.126Z,26.73
2023-04-22T00:18:38.242Z,26.51
2023-04-22T00:21:07.529Z,27.17
2023-04-22T00:23:35.440Z,26.79
2023-04-22T00:26:03.707Z,26.77
2023-04-22T00:28:31.712Z,26.68
2023-04-22T00:31:03.426Z,27.02
2023-04-22T00:33:31.512Z,27.18
2023-04-22T00:35:59.630Z,27.24
2023-04-22T00:38:27.445Z,27.13
2023-04-22T00:40:55.304Z,27.14
2023-04-22T00:43:23.127Z,27.27
2023-04-22T00:45:51.103Z,27.18
2023-04-22T00:48:20.879Z,27.49
2023-04-22T00:50:48.705Z,27.25
2023-04-22T00:53:16.579Z,27.25
2023-04-22T00:55:44.388Z,27.60
2023-04-22T00:58:12.359Z,27.59
2023-04-22T01:00:40.192Z,27.62
2023-04-22T01:03:08.807Z,27.15
2023-04-22T01:05:39.302Z,27.32
2023-04-22T01:08:07.123Z,27.51
2023-04-22T01:10:35.273Z,27.76
2023-04-22T01:13:03.474Z,27.53
2023-04-22T01:15:31.344Z,27.60
2023-04-22T01:18:00.205Z,27.77
2023-04-22T01:20:29.770Z,27.85
2023-04-22T01:23:04.320Z,28.17
2023-04-22T01:25:34.273Z,27.91
2023-04-22T01:28:02.817Z,28.13
2023-04-22T01:30:30.662Z,27.67
2023-04-22T01:32:58.552Z,27.93
2023-04-22T01:35:26.633Z,28.37
2023-04-22T01:37:54.510Z,27.94
2023-04-22T01:40:23.826Z,28.42
2023-04-22T01:42:53.282Z,28.51
2023-04-22T01:45:21.174Z,28.49
2023-04-22T01:47:49.203Z,28.39
2023-04-22T01:50:17.001Z,28.28
2023-04-22T01:52:45.080Z,28.57
2023-04-22T01:55:13.220Z,28.54
2023-04-22T01:57:41.400Z,28.79
2023-04-22T02:00:11.872Z,28.33
2023-04-22T02:02:39.767Z,28.50
2023-04-22T02:05:09.099Z,28.94
2023-04-22T02:07:37.428Z,28.82
2023-04-22T02:10:05.562Z,29.00
2023-04-22T02:12:33.383Z,28.45
2023-04-22T02:15:01.539Z,28.46
2023-04-22T02:17:31.403Z,28.62
2023-04-22T02:19:59.496Z,28.79
2023-04-22T02:22:29.508Z,28.80
2023-04-22T02:24:57.321Z,28.84
2023-04-22T02:27:25.242Z,28.56
2023-04-22T02:29:53.422Z,29.39
2023-04-22T02:35:02.149Z,28.99
2023-04-22T02:37:29.975Z,29.13
2023-04-22T02:39:57.952Z,29.41
2023-04-22T02:42:26.141Z,28.86
2023-04-22T02:44:53.908Z,29.19
2023-04-22T02:47:22.090Z,29.14
2023-04-22T02:49:50.033Z,29.68
2023-04-22T02:52:19.237Z,29.63
2023-04-22T02:54:47.001Z,29.49
2023-04-22T02:57:14.865Z,29.21
2023-04-22T02:59:42.772Z,29.89
2023-04-22T03:02:11.413Z,29.67
2023-04-22T03:04:39.361Z,29.45
2023-04-22T03:07:07.246Z,29.87
2023-04-22T03:09:36.401Z,29.76
2023-04-22T03:12:04.432Z,29.66
2023-04-22T03:14:32.263Z,29.80
2023-04-22T03:17:00.135Z,29.67
2023-04-22T03:19:28.216Z,30.27
2023-04-22T03:21:56.515Z,30.23
2023-04-22T03:24:24.286Z,29.88
2023-04-22T03:26:53.528Z,29.86
2023-04-22T03:29:21.372Z,30.25
2023-04-22T03:31:49.304Z,30.26
2023-04-22T03:34:17.458Z,30.16
2023-04-22T03:36:45.279Z,30.19
2023-04-22T03:39:13.039Z,30.55
2023-04-22T03:41:40.929Z,30.14
2023-04-22T03:44:10.644Z,30.83
2023-04-22T03:46:38.476Z,30.30
2023-04-22T03:49:06.807Z,30.39
2023-04-22T03:51:34.642Z,30.66
2023-04-22T03:54:02.486Z,31.15
2023-04-22T03:56:30.263Z,31.12
2023-04-22T03:58:58.112Z,30.53
2023-04-22T04:01:27.547Z,30.86
2023-04-22T04:03:55.523Z,31.03
2023-04-22T04:06:23.415Z,30.96
2023-04-22T04:08:51.239Z,31.43
2023-04-22T04:11:19.092Z,31.23
2023-04-22T04:13:46.903Z,31.37
2023-04-22T04:16:14.743Z,31.36
2023-04-22T04:18:44.174Z,31.35
2023-04-22T04:21:11.983Z,31.34
2023-04-22T04:23:40.410Z,31.62
2023-04-22T04:26:08.291Z,32.05
2023-04-22T04:28:36.202Z,31.76
2023-04-22T04:31:04.033Z,31.88
2023-04-22T04:33:32.882Z,31.83
2023-04-22T04:36:02.032Z,31.84
2023-04-22T04:38:29.968Z,32.26
2023-04-22T04:40:58.152Z,32.03
2023-04-22T04:43:27.034Z,32.17
2023-04-22T04:45:54.831Z,32.49
2023-04-22T04:48:25.197Z,32.44
2023-04-22T04:50:54.249Z,32.50
2023-04-22T04:53:24.023Z,32.65
2023-04-22T04:55:51.856Z,32.73
2023-04-22T04:58:19.634Z,33.15
2023-04-22T05:00:47.392Z,33.04
2023-04-22T05:03:15.416Z,32.88
2023-04-22T05:05:43.387Z,33.36
2023-04-22T05:08:11.172Z,32.97
2023-04-22T05:10:40.819Z,33.58
2023-04-22T05:13:08.781Z,33.31
2023-04-22T05:15:36.658Z,33.43
2023-04-22T05:18:05.961Z,34.05
2023-04-22T05:20:36.121Z,34.23
2023-04-22T05:23:04.177Z,34.24
2023-04-22T05:25:32.191Z,34.59
2023-04-22T05:28:03.364Z,34.63
2023-04-22T05:30:31.121Z,34.85
2023-04-22T05:32:59.026Z,34.62
2023-04-22T05:35:26.826Z,34.82
2023-04-22T05:37:54.628Z,34.76
2023-04-22T05:40:22.652Z,35.21
2023-04-22T05:42:50.457Z,35.47
2023-04-22T05:45:20.284Z,35.97
2023-04-22T05:47:48.265Z,35.75
2023-04-22T05:50:16.241Z,36.05
2023-04-22T05:52:43.977Z,36.25
2023-04-22T05:55:11.877Z,36.49
2023-04-22T05:57:39.705Z,36.34
2023-04-22T06:00:09.288Z,36.58
2023-04-22T06:02:38.549Z,36.77
2023-04-22T06:05:07.605Z,36.77
2023-04-22T06:07:35.680Z,37.05
2023-04-22T06:12:51.256Z,37.38
2023-04-22T06:15:19.164Z,37.24
2023-04-22T06:17:49.326Z,37.82
2023-04-22T06:20:17.165Z,37.73
2023-04-22T06:22:45.098Z,38.10
2023-04-22T06:25:12.935Z,37.95
2023-04-22T06:27:40.972Z,38.22
2023-04-22T06:30:10.044Z,38.33
2023-04-22T06:32:37.905Z,38.34
2023-04-22T06:35:08.378Z,38.68
2023-04-22T06:37:36.877Z,38.67
2023-04-22T06:40:05.107Z,38.71
2023-04-22T06:42:32.971Z,38.93
2023-04-22T06:45:00.750Z,38.92
2023-04-22T06:47:28.694Z,39.06
2023-04-22T06:49:56.615Z,39.17
2023-04-22T06:52:26.194Z,39.26
2023-04-22T06:54:53.929Z,39.36
2023-04-22T06:57:21.777Z,39.43
2023-04-22T06:59:49.538Z,39.43
2023-04-22T07:02:17.853Z,39.80
2023-04-22T07:04:45.861Z,39.73
2023-04-22T07:10:11.772Z,39.86
2023-04-22T07:12:39.567Z,39.75
2023-04-22T07:15:08.894Z,40.00
2023-04-22T07:17:36.726Z,39.96
2023-04-22T07:20:04.822Z,40.19
2023-04-22T07:22:32.662Z,40.32
2023-04-22T07:25:00.395Z,40.36
2023-04-22T07:27:29.621Z,40.40
2023-04-22T07:29:57.464Z,40.47
2023-04-22T07:32:25.319Z,40.46
2023-04-22T07:34:53.116Z,40.52
2023-04-22T07:37:22.487Z,40.58
2023-04-22T07:39:50.245Z,40.66
2023-04-22T07:42:18.163Z,40.67
2023-04-22T07:44:47.334Z,40.68
2023-04-22T07:47:15.129Z,40.71
2023-04-22T07:49:43.435Z,40.76
2023-04-22T07:52:11.356Z,40.85
2023-04-22T07:54:39.153Z,40.94
2023-04-22T07:57:06.979Z,40.95
2023-04-22T07:59:34.860Z,40.85
2023-04-22T08:02:04.305Z,40.96
2023-04-22T08:04:32.383Z,41.01
2023-04-22T08:07:09.193Z,41.11
2023-04-22T08:09:45.308Z,41.01
2023-04-22T08:12:14.500Z,41.23
2023-04-22T08:14:42.282Z,41.11
2023-04-22T08:17:11.444Z,41.12
2023-04-22T08:19:39.642Z,40.85
2023-04-22T08:22:08.190Z,40.95
2023-04-22T08:24:36.194Z,41.16
2023-04-22T08:27:04.069Z,41.16
2023-04-22T08:29:34.120Z,41.19
2023-04-22T08:32:02.052Z,41.01
2023-04-22T08:34:31.218Z,41.13
2023-04-22T08:36:59.181Z,41.13
2023-04-22T08:39:27.081Z,41.07
2023-04-22T08:41:56.266Z,41.00
2023-04-22T08:44:24.121Z,41.02
2023-04-22T08:46:52.812Z,41.04
2023-04-22T08:49:22.411Z,40.90
2023-04-22T08:51:53.093Z,40.87
2023-04-22T08:54:21.076Z,40.95
2023-04-22T08:56:51.451Z,40.68
2023-04-22T08:59:21.243Z,40.86
2023-04-22T09:01:53.385Z,40.76
2023-04-22T09:04:21.489Z,40.80
2023-04-22T09:06:50.892Z,40.64
2023-04-22T09:09:20.447Z,40.57
2023-04-22T09:11:48.273Z,40.47
2023-04-22T09:14:17.626Z,40.43
2023-04-22T09:16:49.272Z,40.42
2023-04-22T09:19:17.171Z,40.34
2023-04-22T09:21:49.103Z,40.69
2023-04-22T09:24:20.624Z,40.57
2023-04-22T09:26:48.976Z,40.49
2023-04-22T09:29:18.042Z,40.25
2023-04-22T09:31:49.791Z,40.58
2023-04-22T09:34:17.848Z,40.25
2023-04-22T09:36:46.871Z,40.03
2023-04-22T09:39:14.951Z,40.19
2023-04-22T09:41:44.334Z,40.24
2023-04-22T09:44:16.190Z,39.96
2023-04-22T09:46:44.938Z,39.81
2023-04-22T09:49:13.304Z,40.07
2023-04-22T09:51:42.840Z,39.61
2023-04-22T09:54:12.151Z,39.57
2023-04-22T09:56:49.666Z,39.75
2023-04-22T09:59:22.701Z,39.61
2023-04-22T10:01:54.748Z,39.20
2023-04-22T10:04:23.455Z,38.95
2023-04-22T10:06:51.953Z,39.19
2023-04-22T10:09:21.427Z,38.99
2023-04-22T10:11:52.473Z,38.75
2023-04-22T10:14:20.267Z,38.46
2023-04-22T10:16:49.338Z,38.56
2023-04-22T10:19:22.038Z,38.32
2023-04-22T10:21:54.742Z,38.59
2023-04-22T10:24:22.594Z,38.08
2023-04-22T10:26:56.875Z,38.03
2023-04-22T10:29:26.261Z,37.93
2023-04-22T10:31:58.337Z,37.75
2023-04-22T10:34:26.672Z,37.67
2023-04-22T10:37:00.081Z,37.71
2023-04-22T10:39:29.442Z,37.31
2023-04-22T10:42:12.844Z,37.15
2023-04-22T10:44:49.091Z,37.17
2023-04-22T10:47:27.264Z,36.93
2023-04-22T10:50:18.468Z,36.74
2023-04-22T10:52:49.773Z,36.61
2023-04-22T10:55:18.109Z,36.21
2023-04-22T10:57:49.437Z,36.36
2023-04-22T11:03:18.030Z,35.93
2023-04-22T11:05:46.430Z,36.04
2023-04-22T11:08:20.453Z,36.02
2023-04-22T11:10:49.554Z,35.70
2023-04-22T11:13:21.156Z,35.50
2023-04-22T11:15:51.034Z,35.37
2023-04-22T11:18:21.229Z,35.42
2023-04-22T11:20:50.687Z,35.25
2023-04-22T11:23:20.693Z,34.91
2023-04-22T11:25:48.408Z,34.69
2023-04-22T11:28:16.282Z,34.37
2023-04-22T11:30:45.511Z,34.34
2023-04-22T11:33:16.601Z,34.15
2023-04-22T11:35:44.703Z,34.34
2023-04-22T11:38:12.455Z,34.25
2023-04-22T11:40:45.061Z,33.74
2023-04-22T11:43:14.720Z,33.60
2023-04-22T11:45:42.838Z,33.64
2023-04-22T11:48:12.546Z,33.32
2023-04-22T11:50:42.228Z,33.42
2023-04-22T11:53:16.108Z,33.08
2023-04-22T11:55:45.381Z,33.16
2023-04-22T11:58:15.416Z,32.74
2023-04-22T12:00:44.910Z,33.03
2023-04-22T12:03:16.918Z,32.75
2023-04-22T12:05:46.734Z,32.54
2023-04-22T12:08:17.797Z,32.63
2023-04-22T12:10:46.992Z,32.20
2023-04-22T12:13:21.989Z,32.22
2023-04-22T12:15:50.690Z,32.08
2023-04-22T12:18:29.653Z,31.96
2023-04-22T12:21:00.695Z,31.85
2023-04-22T12:23:29.494Z,31.53
2023-04-22T12:25:57.323Z,31.49
2023-04-22T12:28:25.620Z,31.32
2023-04-22T12:30:53.436Z,31.25
2023-04-22T12:33:22.729Z,31.26
2023-04-22T12:35:52.673Z,30.82
2023-04-22T12:38:20.883Z,30.84
2023-04-22T12:40:48.653Z,30.77
2023-04-22T12:43:16.524Z,30.65
2023-04-22T12:45:44.444Z,30.66
2023-04-22T12:48:12.202Z,30.37
2023-04-22T12:50:42.252Z,30.26
2023-04-22T12:53:10.535Z,30.30
2023-04-22T12:55:38.460Z,29.98
2023-04-22T12:58:06.353Z,29.81
2023-04-22T13:00:34.211Z,29.85
2023-04-22T13:03:02.068Z,29.48
2023-04-22T13:05:29.961Z,29.57
2023-04-22T13:08:06.586Z,29.72
2023-04-22T13:10:36.179Z,29.16
2023-04-22T13:13:17.507Z,29.09
2023-04-22T13:15:47.489Z,28.81
2023-04-22T13:18:16.190Z,28.83
2023-04-22T13:20:44.195Z,28.74
2023-04-22T13:23:14.876Z,29.14
2023-04-22T13:25:42.705Z,28.98
2023-04-22T13:28:11.537Z,28.97
2023-04-22T13:30:39.946Z,28.73
2023-04-22T13:33:07.842Z,28.45
2023-04-22T13:35:36.305Z,28.43
2023-04-22T13:38:05.095Z,28.10
2023-04-22T13:40:34.329Z,28.45
2023-04-22T13:43:02.294Z,28.38
2023-04-22T13:45:30.219Z,28.26
2023-04-22T13:47:58.283Z,27.84
2023-04-22T13:50:26.039Z,27.88
2023-04-22T13:52:53.967Z,28.08
2023-04-22T13:55:21.795Z,27.59
2023-04-22T13:57:51.993Z,27.90
2023-04-22T14:00:20.878Z,27.81
2023-04-22T14:02:49.923Z,27.24
2023-04-22T14:05:18.107Z,27.34
2023-04-22T14:07:46.257Z,27.58
2023-04-22T14:10:14.234Z,27.14
2023-04-22T14:12:43.195Z,27.35
2023-04-22T14:15:12.718Z,26.88
2023-04-22T14:17:40.916Z,27.20
2023-04-22T14:20:10.820Z,27.23
2023-04-22T14:22:38.859Z,26.86
2023-04-22T14:25:08.162Z,27.00
2023-04-22T14:27:36.550Z,26.82
2023-04-22T14:30:05.919Z,26.45
2023-04-22T14:32:35.750Z,26.61
2023-04-22T14:35:03.617Z,26.79
2023-04-22T14:37:32.180Z,26.61
2023-04-22T14:40:00.047Z,26.28
2023-04-22T14:42:28.749Z,26.29
2023-04-22T14:44:56.627Z,26.37
2023-04-22T14:47:24.649Z,26.54
2023-04-22T14:49:53.865Z,26.23
2023-04-22T14:52:21.820Z,26.37
2023-04-22T14:54:51.801Z,26.33
2023-04-22T14:57:19.959Z,25.98
2023-04-22T14:59:47.907Z,25.82
2023-04-22T15:02:16.891Z,25.79
2023-04-22T15:04:45.245Z,26.09
2023-04-22T15:07:14.568Z,26.07
2023-04-22T15:09:42.890Z,25.73
2023-04-22T15:12:11.041Z,25.72
2023-04-22T15:14:39.226Z,25.59
2023-04-22T15:17:07.319Z,25.43
2023-04-22T15:19:35.309Z,25.58
2023-04-22T15:22:03.297Z,25.26
2023-04-22T15:24:32.525Z,25.21
2023-04-22T15:27:01.270Z,25.09
2023-04-22T15:29:29.438Z,25.02
2023-04-22T15:31:57.852Z,24.83
2023-04-22T15:34:26.105Z,24.68
2023-04-22T15:36:54.410Z,24.94
2023-04-22T15:39:22.374Z,24.98
2023-04-22T15:41:51.794Z,24.78
2023-04-22T15:44:19.648Z,25.00
2023-04-22T15:46:47.650Z,24.93
2023-04-22T15:49:16.690Z,24.59
2023-04-22T15:51:44.778Z,24.70
2023-04-22T15:54:13.373Z,24.67
2023-04-22T15:56:41.419Z,24.45
2023-04-22T15:59:10.674Z,24.33
2023-04-22T16:01:40.578Z,24.44
2023-04-22T16:04:08.909Z,24.40
2023-04-22T16:06:38.135Z,24.58
2023-04-22T16:09:06.105Z,24.44
2023-04-22T16:11:33.959Z,24.53
2023-04-22T16:14:01.784Z,24.68
2023-04-22T16:16:32.321Z,24.26
2023-04-22T16:19:00.274Z,24.23
2023-04-22T16:21:28.676Z,24.35
2023-04-22T16:23:56.622Z,24.24
2023-04-22T16:26:24.443Z,24.18
2023-04-22T16:28:54.845Z,24.15
2023-04-22T16:31:23.664Z,24.12
2023-04-22T16:33:53.097Z,23.89
2023-04-22T16:36:21.569Z,24.04
2023-04-22T16:38:49.450Z,23.86
2023-04-22T16:41:17.249Z,23.97
2023-04-22T16:43:45.311Z,23.72
2023-04-22T16:46:13.975Z,23.79
2023-04-22T16:48:41.792Z,23.81
2023-04-22T16:51:10.988Z,23.75
2023-04-22T16:53:38.914Z,23.76
2023-04-22T16:56:07.032Z,23.72
2023-04-22T16:58:34.996Z,23.64
2023-04-22T17:01:03.109Z,23.66
2023-04-22T17:03:31.151Z,23.64
2023-04-22T17:05:59.191Z,23.75
2023-04-22T17:08:29.035Z,23.67
2023-04-22T17:10:57.162Z,23.58
2023-04-22T17:13:24.916Z,23.49
2023-04-22T17:15:52.801Z,23.61
2023-04-22T17:18:20.624Z,23.66
2023-04-22T17:20:49.066Z,23.65
2023-04-22T17:23:17.564Z,23.76
2023-04-22T17:25:47.976Z,23.43
2023-04-22T17:28:15.941Z,23.59
2023-04-22T17:30:43.841Z,23.60
2023-04-22T17:33:11.712Z,23.62
2023-04-22T17:35:39.595Z,23.69
2023-04-22T17:38:07.442Z,23.43
2023-04-22T17:40:35.310Z,23.25
2023-04-22T17:43:04.741Z,23.40
2023-04-22T17:45:32.533Z,23.33
2023-04-22T17:48:00.442Z,23.51
2023-04-22T17:50:28.677Z,23.25
2023-04-22T17:52:56.466Z,23.49
2023-04-22T17:55:24.468Z,23.50
2023-04-22T17:57:52.311Z,23.56
2023-04-22T18:00:22.124Z,23.63
2023-04-22T18:02:50.102Z,23.53
2023-04-22T18:05:18.249Z,23.16
2023-04-22T18:07:46.205Z,23.58
2023-04-22T18:10:14.603Z,23.61
2023-04-22T18:12:42.459Z,23.34
2023-04-22T18:15:10.723Z,23.52
2023-04-22T18:17:40.256Z,23.52
2023-04-22T18:20:17.456Z,23.32
2023-04-22T18:22:47.562Z,23.57
2023-04-22T18:25:15.989Z,23.30
2023-04-22T18:27:43.753Z,23.45
2023-04-22T18:30:12.426Z,23.50
2023-04-22T18:32:41.712Z,23.35
2023-04-22T18:35:10.510Z,23.32
2023-04-22T18:37:38.939Z,23.52
2023-04-22T18:40:08.253Z,23.40
2023-04-22T18:42:36.382Z,23.54
2023-04-22T18:45:05.058Z,23.47
2023-04-22T18:47:33.396Z,23.65
2023-04-22T18:50:02.719Z,23.72
2023-04-22T18:52:30.674Z,23.29
2023-04-22T18:54:58.573Z,23.48
2023-04-22T18:57:26.505Z,23.46
2023-04-22T18:59:55.120Z,23.33
2023-04-22T19:02:23.162Z,23.54
2023-04-22T19:04:51.070Z,23.41
2023-04-22T19:07:20.814Z,23.43
2023-04-22T19:09:48.616Z,23.50
2023-04-22T19:12:19.023Z,23.52
2023-04-22T19:14:48.149Z,23.60
2023-04-22T19:17:16.002Z,23.24
2023-04-22T19:19:45.363Z,23.71
2023-04-22T19:22:13.683Z,23.63
2023-04-22T19:24:42.934Z,23.52
2023-04-22T19:27:12.491Z,23.45
2023-04-22T19:29:41.583Z,23.38
2023-04-22T19:32:09.835Z,23.61
2023-04-22T19:34:39.290Z,23.50
2023-04-22T19:37:09.546Z,23.76
2023-04-22T19:39:37.290Z,24.06
2023-04-22T19:42:06.817Z,23.77
2023-04-22T19:44:34.709Z,23.61
2023-04-22T19:47:02.603Z,23.44
2023-04-22T19:49:32.535Z,23.78
2023-04-22T19:52:02.730Z,24.05
2023-04-22T19:54:30.773Z,23.95
2023-04-22T19:57:00.197Z,23.54
2023-04-22T19:59:31.680Z,23.42
2023-04-22T20:02:00.237Z,23.62
2023-04-22T20:04:28.982Z,23.72
2023-04-22T20:06:58.994Z,23.80
2023-04-22T20:09:27.893Z,23.92
2023-04-22T20:11:55.918Z,24.05
2023-04-22T20:14:24.420Z,23.66
2023-04-22T20:16:54.409Z,23.93
2023-04-22T20:19:22.572Z,23.96
2023-04-22T20:21:53.299Z,23.71
2023-04-22T20:24:21.978Z,24.30
2023-04-22T20:26:49.954Z,23.80
2023-04-22T20:29:18.853Z,23.30
2023-04-22T20:31:47.010Z,24.11
2023-04-22T20:34:16.405Z,24.10
2023-04-22T20:36:44.347Z,24.19
2023-04-22T20:39:14.241Z,24.14
2023-04-22T20:41:42.612Z,24.36
2023-04-22T20:44:10.655Z,23.83
2023-04-22T20:46:38.894Z,23.62
2023-04-22T20:49:07.113Z,23.96
2023-04-22T20:51:36.490Z,24.02
2023-04-22T20:54:06.138Z,24.12
2023-04-22T20:56:37.735Z,24.16
2023-04-22T20:59:06.053Z,23.94
2023-04-22T21:01:34.260Z,23.90
2023-04-22T21:04:03.100Z,24.08
2023-04-22T21:06:33.951Z,23.72
2023-04-22T21:09:04.483Z,23.95
2023-04-22T21:11:32.808Z,24.12
2023-04-22T21:14:01.053Z,23.83
2023-04-22T21:16:31.683Z,23.91
2023-04-22T21:19:01.136Z,24.05
2023-04-22T21:21:33.674Z,23.88
2023-04-22T21:24:04.847Z,24.36
2023-04-22T21:26:34.061Z,24.29
2023-04-22T21:29:02.103Z,24.21
2023-04-22T21:31:30.044Z,24.14
2023-04-22T21:33:58.240Z,23.89
2023-04-22T21:36:26.615Z,24.41
2023-04-22T21:38:54.936Z,23.98
2023-04-22T21:41:24.821Z,24.08
2023-04-22T21:43:52.643Z,24.31
2023-04-22T21:46:22.095Z,24.44
2023-04-22T21:48:50.943Z,24.41
2023-04-22T21:51:18.977Z,24.26
2023-04-22T21:53:47.092Z,24.38
2023-04-22T21:56:15.073Z,24.12
2023-04-22T21:58:44.281Z,24.32
2023-04-22T22:01:12.070Z,24.39
2023-04-22T22:03:40.047Z,24.29
2023-04-22T22:06:08.237Z,24.52
2023-04-22T22:08:36.151Z,24.13
2023-04-22T22:11:07.042Z,24.80
2023-04-22T22:13:35.917Z,24.43
2023-04-22T22:16:05.254Z,24.47
2023-04-22T22:18:33.110Z,24.33
2023-04-22T22:21:00.956Z,24.83
2023-04-22T22:23:28.660Z,24.20
2023-04-22T22:25:56.406Z,24.35
2023-04-22T22:28:24.219Z,24.30
2023-04-22T22:30:52.079Z,24.57
2023-04-22T22:33:21.431Z,24.94
2023-04-22T22:35:49.366Z,24.27
2023-04-22T22:38:17.469Z,24.39
2023-04-22T22:40:45.509Z,24.33
2023-04-22T22:43:13.540Z,25.11
2023-04-22T22:45:41.647Z,24.61
2023-04-22T22:48:09.567Z,25.21
2023-04-22T22:50:38.950Z,24.66
2023-04-22T22:53:06.840Z,24.54
2023-04-22T22:55:34.866Z,25.06
2023-04-22T22:58:02.686Z,24.58
2023-04-22T23:00:30.542Z,25.12
2023-04-22T23:02:59.393Z,25.13
2023-04-22T23:05:27.394Z,24.59
2023-04-22T23:07:56.500Z,24.76
2023-04-22T23:10:24.560Z,24.85
2023-04-22T23:12:52.433Z,24.83
2023-04-22T23:15:20.324Z,25.33
2023-04-22T23:17:48.343Z,25.16
2023-04-22T23:20:17.099Z,24.87
2023-04-22T23:22:46.293Z,25.39
2023-04-22T23:25:17.472Z,24.88
2023-04-22T23:27:46.005Z,24.96
2023-04-22T23:30:14.642Z,25.47
2023-04-22T23:32:44.569Z,24.83
2023-04-22T23:35:14.196Z,25.52
2023-04-22T23:37:45.216Z,25.13
2023-04-22T23:40:15.103Z,25.13
2023-04-22T23:42:43.348Z,25.28
2023-04-22T23:45:12.261Z,25.56
2023-04-22T23:47:40.245Z,25.40
2023-04-22T23:50:10.346Z,25.23
2023-04-22T23:52:41.220Z,25.12
2023-04-22T23:55:10.880Z,25.11
2023-04-22T23:57:40.800Z,25.58
